Portada
Imágenes satélite Pronóstico 10 díasClimaPredicción Marítima Ciclones Rayo AeropuertosFAQ Noticias Acerca
El tiempo : Europa África América del Norte América del Sur Asia Australia-Oceanía Otros
Idiomas Contacto

Vitória, Espírito Santo, Brasil

latitud: 20-16S, longitud: 040-17W, altitud: 4 m


METAR: SBVT 191200Z 03004KT CAVOK 28/20 Q1014
TAF: SBVT 191000Z 1912/2012 10010KT 9999 SCT025 TX30/1916Z TN22/2008Z BECMG 2000/2002 33005KT RMK PCH

Hora: 09:36 (12:36 UTC)

Observación

El informe se hizo hace 36 minutos, a las 12:00 UTC
Viento 4 kt del norte-noreste
Temperatura 28°C
Humedad 62%
Presión 1014 hPa
Visibilidad 10 km o más
sin nubes por debajo de 1500 m y sin presencia de cumulonimbus.

Cambiar las unidades

Pronóstico

El informe se hizo hace 2 horas y 36 minutos, a las 10:00 UTC
Pronóstico válido del 19 a las 12 UTC al 20 a las 12 UTC
Viento 10 kt del este
Visibilidad 10 km o más
Nubes dispersas a una altura de 2500 ft
Evolucionando progresivamente
del 20 a las 00 UTC al 20 a las 02 UTC
Viento 5 kt del norte-noroeste
La información que se ofrece en estas páginas está sujeta a una cláusula de exención de responsabilidad
El tiempo : Europa África América del Norte América del Sur Asia Australia-Oceanía Otros
Imágenes satélite Pronóstico 10 díasClimaPredicción Marítima Ciclones Rayo AeropuertosFAQ Idiomas Contacto Noticias Acerca